createdAt,value
2018-04-17T00:01:29.621Z,6.70
2018-04-17T00:03:57.187Z,6.70
2018-04-17T00:06:24.655Z,6.60
2018-04-17T00:08:52.134Z,6.50
2018-04-17T00:11:19.605Z,6.60
2018-04-17T00:13:47.077Z,6.70
2018-04-17T00:16:15.332Z,6.80
2018-04-17T00:18:42.786Z,6.80
2018-04-17T00:21:10.245Z,6.80
2018-04-17T00:23:37.711Z,6.70
2018-04-17T00:26:05.231Z,6.70
2018-04-17T00:28:33.481Z,6.70
2018-04-17T00:31:00.932Z,6.70
2018-04-17T00:33:28.415Z,6.70
2018-04-17T00:35:57.292Z,6.60
2018-04-17T00:38:24.778Z,6.50
2018-04-17T00:40:53.015Z,6.50
2018-04-17T00:43:20.536Z,6.50
2018-04-17T00:45:48.001Z,6.30
2018-04-17T00:48:15.489Z,6.20
2018-04-17T00:50:42.981Z,6.10
2018-04-17T00:53:23.154Z,6.00
2018-04-17T00:55:51.446Z,6.00
2018-04-17T00:58:18.937Z,5.90
2018-04-17T01:00:47.183Z,5.80
2018-04-17T01:03:14.665Z,5.80
2018-04-17T01:05:42.135Z,5.80
2018-04-17T01:08:09.620Z,5.80
2018-04-17T01:10:37.096Z,5.70
2018-04-17T01:13:05.339Z,5.70
2018-04-17T01:15:33.613Z,5.60
2018-04-17T01:18:01.110Z,5.60
2018-04-17T01:20:29.390Z,5.70
2018-04-17T01:22:56.852Z,5.70
2018-04-17T01:25:24.346Z,5.80
2018-04-17T01:27:51.855Z,5.70
2018-04-17T01:30:20.111Z,5.70
2018-04-17T01:32:47.592Z,5.70
2018-04-17T01:35:15.854Z,5.60
2018-04-17T01:37:44.096Z,5.60
2018-04-17T01:40:11.570Z,5.60
2018-04-17T01:42:39.033Z,5.70
2018-04-17T01:45:06.533Z,5.60
2018-04-17T01:47:34.000Z,5.50
2018-04-17T01:50:01.489Z,5.50
2018-04-17T01:52:28.956Z,5.50
2018-04-17T01:54:56.427Z,5.50
2018-04-17T01:57:23.889Z,5.40
2018-04-17T01:59:51.384Z,5.40
2018-04-17T02:02:19.622Z,5.30
2018-04-17T02:04:47.077Z,5.30
2018-04-17T02:07:14.561Z,5.30
2018-04-17T02:09:42.793Z,5.30
2018-04-17T02:12:10.285Z,5.20
2018-04-17T02:14:37.764Z,5.20
2018-04-17T02:17:06.017Z,5.10
2018-04-17T02:19:33.524Z,5.10
2018-04-17T02:22:01.048Z,5.10
2018-04-17T02:24:28.508Z,5.00
2018-04-17T02:26:56.757Z,5.00
2018-04-17T02:29:24.248Z,5.00
2018-04-17T02:31:52.495Z,4.90
2018-04-17T02:34:20.033Z,4.90
2018-04-17T02:36:47.518Z,5.00
2018-04-17T02:39:14.988Z,5.00
2018-04-17T02:41:42.494Z,5.00
2018-04-17T02:44:10.060Z,4.90
2018-04-17T02:46:37.518Z,4.90
2018-04-17T02:49:05.024Z,4.90
2018-04-17T02:51:32.531Z,4.80
2018-04-17T02:53:59.993Z,4.80
2018-04-17T02:56:27.507Z,4.80
2018-04-17T02:58:55.779Z,4.70
2018-04-17T03:01:23.254Z,4.70
2018-04-17T03:03:51.520Z,4.70
2018-04-17T03:06:18.991Z,4.70
2018-04-17T03:08:47.232Z,4.70
2018-04-17T03:11:14.695Z,4.70
2018-04-17T03:13:42.200Z,4.70
2018-04-17T03:16:09.708Z,4.70
2018-04-17T03:18:37.243Z,4.70
2018-04-17T03:21:04.717Z,4.70
2018-04-17T03:23:32.204Z,4.70
2018-04-17T03:26:00.153Z,4.70
2018-04-17T03:28:27.630Z,4.70
2018-04-17T03:30:55.955Z,4.70
2018-04-17T03:33:23.425Z,4.70
2018-04-17T03:35:51.389Z,4.70
2018-04-17T03:38:18.854Z,4.60
2018-04-17T03:40:46.370Z,4.60
2018-04-17T03:43:14.632Z,4.60
2018-04-17T03:45:42.118Z,4.60
2018-04-17T03:48:09.601Z,4.50
2018-04-17T03:50:37.073Z,4.50
2018-04-17T03:53:04.560Z,4.50
2018-04-17T03:55:32.032Z,4.40
2018-04-17T03:58:00.272Z,4.40
2018-04-17T04:00:27.742Z,4.30
2018-04-17T04:02:55.235Z,4.40
2018-04-17T04:05:23.488Z,4.60
2018-04-17T04:07:50.977Z,4.50
2018-04-17T04:10:18.458Z,4.60
2018-04-17T04:12:45.943Z,4.70
2018-04-17T04:15:13.401Z,4.70
2018-04-17T04:17:52.729Z,5.00
2018-04-17T04:20:32.117Z,5.20
2018-04-17T04:23:12.048Z,5.30
2018-04-17T04:28:48.974Z,5.30
2018-04-17T04:31:16.490Z,5.20
2018-04-17T04:33:44.007Z,5.20
2018-04-17T04:36:11.507Z,5.20
2018-04-17T04:38:39.019Z,5.10
2018-04-17T04:41:06.495Z,5.10
2018-04-17T04:43:33.973Z,5.10
2018-04-17T04:46:01.465Z,5.10
2018-04-17T04:48:29.817Z,5.20
2018-04-17T04:50:57.322Z,5.10
2018-04-17T04:53:24.808Z,5.10
2018-04-17T04:55:52.590Z,5.20
2018-04-17T04:58:20.060Z,5.30
2018-04-17T05:00:47.549Z,5.40
2018-04-17T05:03:15.045Z,5.40
2018-04-17T05:05:42.516Z,5.50
2018-04-17T05:08:09.999Z,5.60
2018-04-17T05:10:37.464Z,5.70
2018-04-17T05:13:04.949Z,5.80
2018-04-17T05:15:33.206Z,6.00
2018-04-17T05:18:00.729Z,6.00
2018-04-17T05:20:28.215Z,6.10
2018-04-17T05:22:55.693Z,6.10
2018-04-17T05:25:23.960Z,6.40
2018-04-17T05:27:51.519Z,6.30
2018-04-17T05:30:19.010Z,6.50
2018-04-17T05:32:46.477Z,6.60
2018-04-17T05:35:13.996Z,6.80
2018-04-17T05:37:41.504Z,7.00
2018-04-17T05:40:09.134Z,8.30
2018-04-17T05:42:36.568Z,9.70
2018-04-17T05:45:04.056Z,10.40
2018-04-17T05:47:32.306Z,12.20
2018-04-17T05:49:59.814Z,12.10
2018-04-17T05:52:27.314Z,12.70
2018-04-17T05:54:54.817Z,13.00
2018-04-17T05:57:23.057Z,13.90
2018-04-17T05:59:50.573Z,13.90
2018-04-17T06:02:18.066Z,12.90
2018-04-17T06:04:45.560Z,12.40
2018-04-17T06:07:13.029Z,11.90
2018-04-17T06:09:40.537Z,11.50
2018-04-17T06:12:08.026Z,11.40
2018-04-17T06:14:35.522Z,11.10
2018-04-17T06:17:03.013Z,11.50
2018-04-17T06:19:30.548Z,11.50
2018-04-17T06:21:58.031Z,11.50
2018-04-17T06:24:25.509Z,11.90
2018-04-17T06:26:52.993Z,11.90
2018-04-17T06:29:21.232Z,12.70
2018-04-17T06:31:48.738Z,12.60
2018-04-17T06:34:17.012Z,12.90
2018-04-17T06:36:45.274Z,13.80
2018-04-17T06:39:12.790Z,13.70
2018-04-17T06:41:40.353Z,14.90
2018-04-17T06:44:08.742Z,15.50
2018-04-17T06:46:36.228Z,16.00
2018-04-17T06:49:03.784Z,16.30
2018-04-17T06:51:31.293Z,16.40
2018-04-17T06:53:58.826Z,17.10
2018-04-17T06:56:27.154Z,18.20
2018-04-17T06:58:54.666Z,18.20
2018-04-17T07:01:22.179Z,19.20
2018-04-17T07:03:49.674Z,19.70
2018-04-17T07:06:17.943Z,20.30
2018-04-17T07:08:45.425Z,20.30
2018-04-17T07:11:12.972Z,21.00
2018-04-17T07:13:40.513Z,21.20
2018-04-17T07:16:08.390Z,21.10
2018-04-17T07:18:35.921Z,21.60
2018-04-17T07:21:03.451Z,21.00
2018-04-17T07:23:30.958Z,21.00
2018-04-17T07:25:58.640Z,21.30
2018-04-17T07:28:26.142Z,22.80
2018-04-17T07:30:53.675Z,23.90
2018-04-17T07:33:21.965Z,25.00
2018-04-17T07:35:49.843Z,25.00
2018-04-17T07:38:17.355Z,24.30
2018-04-17T07:40:44.845Z,23.90
2018-04-17T07:43:12.322Z,23.90
2018-04-17T07:45:39.807Z,24.10
2018-04-17T07:48:22.954Z,24.80
2018-04-17T07:50:50.472Z,25.80
2018-04-17T07:53:17.992Z,25.10
2018-04-17T07:55:45.538Z,25.30
2018-04-17T07:58:13.114Z,26.20
2018-04-17T08:00:41.414Z,26.70
2018-04-17T08:03:08.906Z,26.60
2018-04-17T08:05:36.400Z,26.10
2018-04-17T08:08:03.891Z,26.90
2018-04-17T08:10:32.172Z,27.00
2018-04-17T08:12:59.653Z,27.00
2018-04-17T08:15:27.182Z,27.60
2018-04-17T08:17:54.708Z,27.00
2018-04-17T08:20:22.280Z,27.70
2018-04-17T08:22:50.550Z,28.60
2018-04-17T08:25:18.030Z,28.50
2018-04-17T08:27:45.513Z,28.50
2018-04-17T08:30:13.014Z,28.20
2018-04-17T08:32:40.510Z,28.50
2018-04-17T08:35:08.012Z,28.70
2018-04-17T08:37:35.497Z,28.00
2018-04-17T08:40:02.989Z,27.50
2018-04-17T08:42:30.489Z,27.90
2018-04-17T08:44:58.733Z,26.90
2018-04-17T08:47:26.257Z,26.90
2018-04-17T08:49:53.752Z,27.60
2018-04-17T08:52:21.285Z,27.50
2018-04-17T08:54:49.578Z,27.70
2018-04-17T08:57:17.084Z,27.70
2018-04-17T08:59:44.641Z,28.40
2018-04-17T09:02:12.149Z,28.30
2018-04-17T09:04:40.426Z,28.20
2018-04-17T09:07:08.717Z,28.00
2018-04-17T09:09:36.973Z,27.40
2018-04-17T09:12:04.520Z,27.40
2018-04-17T09:14:32.820Z,27.30
2018-04-17T09:17:01.090Z,27.40
2018-04-17T09:19:29.356Z,27.60
2018-04-17T09:21:56.856Z,27.50
2018-04-17T09:24:24.364Z,27.80
2018-04-17T09:26:52.008Z,27.70
2018-04-17T09:29:19.546Z,28.10
2018-04-17T09:31:47.841Z,28.20
2018-04-17T09:34:15.372Z,28.10
2018-04-17T09:36:42.941Z,28.10
2018-04-17T09:39:10.455Z,28.30
2018-04-17T09:41:37.956Z,27.90
2018-04-17T09:44:05.462Z,26.80
2018-04-17T09:46:33.058Z,26.90
2018-04-17T09:49:00.576Z,26.80
2018-04-17T09:51:28.830Z,25.50
2018-04-17T09:53:56.314Z,25.40
2018-04-17T09:56:23.908Z,24.70
2018-04-17T09:58:52.192Z,25.90
2018-04-17T10:01:22.255Z,27.00
2018-04-17T10:03:49.794Z,27.00
2018-04-17T10:06:17.325Z,27.60
2018-04-17T10:08:44.832Z,27.50
2018-04-17T10:11:12.377Z,27.40
2018-04-17T10:13:39.872Z,28.00
2018-04-17T10:16:08.137Z,28.20
2018-04-17T10:18:35.621Z,28.20
2018-04-17T10:21:03.150Z,28.20
2018-04-17T10:23:30.699Z,28.50
2018-04-17T10:25:58.671Z,27.70
2018-04-17T10:28:26.153Z,27.60
2018-04-17T10:30:53.671Z,28.30
2018-04-17T10:33:21.173Z,28.90
2018-04-17T10:35:49.425Z,27.70
2018-04-17T10:38:16.897Z,27.70
2018-04-17T10:40:44.421Z,27.30
2018-04-17T10:43:11.926Z,28.00
2018-04-17T10:45:40.188Z,28.60
2018-04-17T10:48:07.690Z,28.60
2018-04-17T10:50:35.174Z,28.60
2018-04-17T10:53:02.705Z,28.10
2018-04-17T10:55:30.186Z,27.50
2018-04-17T10:57:57.776Z,26.60
2018-04-17T11:00:25.274Z,26.10
2018-04-17T11:02:53.767Z,25.00
2018-04-17T11:05:21.241Z,24.30
2018-04-17T11:07:49.546Z,24.70
2018-04-17T11:10:17.041Z,24.70
2018-04-17T11:12:44.537Z,25.00
2018-04-17T11:15:12.057Z,25.80
2018-04-17T11:17:39.552Z,26.40
2018-04-17T11:20:07.825Z,25.90
2018-04-17T11:22:36.139Z,25.30
2018-04-17T11:25:03.648Z,25.20
2018-04-17T11:27:31.208Z,25.40
2018-04-17T11:29:59.509Z,25.20
2018-04-17T11:32:27.778Z,25.50
2018-04-17T11:34:56.057Z,25.50
2018-04-17T11:37:24.349Z,25.10
2018-04-17T11:42:48.163Z,24.20
2018-04-17T11:45:17.585Z,24.10
2018-04-17T11:47:46.095Z,24.00
2018-04-17T11:50:13.604Z,24.70
2018-04-17T11:52:42.160Z,24.40
2018-04-17T11:55:10.326Z,24.00
2018-04-17T11:57:38.720Z,24.90
2018-04-17T12:00:07.028Z,24.30
2018-04-17T12:02:35.668Z,24.30
2018-04-17T12:05:04.927Z,23.70
2018-04-17T12:07:32.428Z,24.30
2018-04-17T12:09:59.929Z,24.70
2018-04-17T12:12:27.448Z,24.60
2018-04-17T12:14:54.961Z,24.20
2018-04-17T12:17:22.520Z,24.10
2018-04-17T12:19:50.011Z,24.40
2018-04-17T12:22:17.582Z,24.30
2018-04-17T12:24:45.133Z,24.30
2018-04-17T12:27:12.646Z,23.80
2018-04-17T12:29:40.174Z,23.50
2018-04-17T12:32:08.454Z,23.90
2018-04-17T12:34:36.835Z,23.80
2018-04-17T12:37:04.332Z,23.80
2018-04-17T12:39:31.832Z,24.00
2018-04-17T12:41:59.368Z,23.90
2018-04-17T12:44:26.930Z,23.60
2018-04-17T12:46:54.442Z,23.60
2018-04-17T12:49:21.921Z,23.40
2018-04-17T12:51:49.416Z,23.70
2018-04-17T12:54:16.925Z,23.70
2018-04-17T12:56:44.399Z,23.80
2018-04-17T12:59:11.912Z,23.70
2018-04-17T13:01:39.462Z,23.60
2018-04-17T13:04:06.940Z,23.80
2018-04-17T13:06:35.205Z,23.50
2018-04-17T13:09:02.791Z,23.50
2018-04-17T13:11:31.041Z,23.70
2018-04-17T13:14:00.024Z,23.70
2018-04-17T13:16:28.416Z,23.90
2018-04-17T13:18:55.920Z,23.90
2018-04-17T13:21:23.453Z,24.00
2018-04-17T13:23:51.748Z,24.10
2018-04-17T13:26:19.265Z,24.10
2018-04-17T13:28:46.895Z,23.60
2018-04-17T13:31:14.385Z,23.60
2018-04-17T13:33:41.878Z,23.60
2018-04-17T13:36:10.235Z,23.60
2018-04-17T13:38:37.720Z,23.60
2018-04-17T13:41:05.993Z,23.50
2018-04-17T13:43:34.248Z,23.30
2018-04-17T13:46:02.136Z,23.30
2018-04-17T13:48:30.404Z,23.30
2018-04-17T13:50:58.746Z,23.20
2018-04-17T13:53:26.237Z,23.20
2018-04-17T13:55:54.209Z,23.40
2018-04-17T13:58:22.459Z,23.60
2018-04-17T14:00:49.933Z,23.60
2018-04-17T14:03:17.418Z,23.50
2018-04-17T14:05:44.913Z,23.60
2018-04-17T14:08:12.406Z,23.60
2018-04-17T14:10:39.960Z,23.30
2018-04-17T14:13:07.441Z,23.20
2018-04-17T14:15:35.710Z,23.20
2018-04-17T14:18:03.194Z,23.20
2018-04-17T14:20:31.479Z,23.30
2018-04-17T14:22:58.962Z,23.30
2018-04-17T14:25:26.493Z,23.20
2018-04-17T14:27:54.754Z,23.00
2018-04-17T14:30:23.066Z,23.20
2018-04-17T14:32:50.634Z,23.20
2018-04-17T14:35:18.130Z,23.20
2018-04-17T14:37:45.632Z,23.00
2018-04-17T14:40:13.130Z,22.90
2018-04-17T14:42:40.605Z,22.90
2018-04-17T14:45:08.084Z,22.90
2018-04-17T14:47:36.352Z,23.10
2018-04-17T14:50:03.835Z,23.10
2018-04-17T14:52:32.098Z,23.00
2018-04-17T14:54:59.609Z,22.90
2018-04-17T14:57:27.118Z,22.90
2018-04-17T14:59:55.399Z,22.80
2018-04-17T15:02:23.672Z,22.80
2018-04-17T15:04:51.161Z,22.80
2018-04-17T15:07:18.664Z,22.70
2018-04-17T15:09:46.474Z,22.70
2018-04-17T15:12:13.977Z,22.50
2018-04-17T15:14:41.522Z,22.60
2018-04-17T15:17:09.045Z,22.60
2018-04-17T15:19:37.318Z,22.80
2018-04-17T15:22:05.563Z,22.80
2018-04-17T15:24:33.065Z,22.80
2018-04-17T15:27:01.317Z,22.90
2018-04-17T15:29:28.945Z,22.90
2018-04-17T15:31:56.441Z,22.70
2018-04-17T15:34:24.719Z,22.70
2018-04-17T15:36:52.202Z,22.70
2018-04-17T15:39:19.712Z,22.60
2018-04-17T15:41:47.277Z,22.70
2018-04-17T15:44:14.783Z,22.70
2018-04-17T15:46:42.277Z,22.70
2018-04-17T15:49:09.781Z,22.70
2018-04-17T15:51:37.261Z,22.70
2018-04-17T15:54:04.736Z,22.40
2018-04-17T15:56:32.237Z,22.50
2018-04-17T15:59:00.040Z,22.60
2018-04-17T16:01:28.304Z,22.50
2018-04-17T16:03:56.593Z,22.50
2018-04-17T16:06:24.860Z,22.40
2018-04-17T16:08:52.373Z,22.50
2018-04-17T16:11:19.925Z,22.60
2018-04-17T16:13:47.459Z,22.70
2018-04-17T16:16:15.846Z,22.70
2018-04-17T16:18:43.342Z,22.60
2018-04-17T16:21:10.830Z,22.60
2018-04-17T16:23:38.322Z,22.50
2018-04-17T16:26:05.809Z,22.50
2018-04-17T16:28:33.304Z,22.40
2018-04-17T16:31:00.810Z,22.30
2018-04-17T16:33:28.285Z,22.30
2018-04-17T16:35:56.578Z,22.20
2018-04-17T16:38:24.089Z,22.00
2018-04-17T16:40:51.654Z,22.00
2018-04-17T16:43:19.198Z,21.90
2018-04-17T16:45:47.458Z,21.80
2018-04-17T16:48:14.983Z,21.80
2018-04-17T16:50:42.507Z,21.80
2018-04-17T16:53:10.007Z,21.80
2018-04-17T16:55:37.518Z,21.60
2018-04-17T16:58:05.775Z,21.50
2018-04-17T17:00:33.273Z,21.50
2018-04-17T17:03:00.752Z,21.60
2018-04-17T17:05:28.238Z,21.50
2018-04-17T17:07:55.735Z,21.40
2018-04-17T17:10:23.984Z,21.00
2018-04-17T17:12:51.531Z,21.00
2018-04-17T17:15:19.027Z,20.80
2018-04-17T17:17:47.279Z,20.70
2018-04-17T17:20:14.766Z,20.70
2018-04-17T17:22:43.108Z,20.60
2018-04-17T17:25:10.613Z,20.60
2018-04-17T17:27:38.916Z,20.60
2018-04-17T17:30:06.598Z,20.60
2018-04-17T17:32:34.126Z,20.60
2018-04-17T17:35:02.373Z,20.50
2018-04-17T17:37:29.880Z,20.50
2018-04-17T17:39:57.440Z,20.50
2018-04-17T17:42:25.065Z,20.40
2018-04-17T17:44:53.401Z,20.30
2018-04-17T17:47:20.906Z,20.30
2018-04-17T17:49:49.215Z,20.10
2018-04-17T17:52:16.767Z,20.10
2018-04-17T17:54:44.298Z,20.00
2018-04-17T17:57:12.560Z,19.80
2018-04-17T17:59:40.053Z,19.80
2018-04-17T18:02:07.557Z,19.70
2018-04-17T18:04:35.038Z,19.60
2018-04-17T18:07:02.577Z,19.50
2018-04-17T18:09:30.835Z,19.30
2018-04-17T18:11:58.332Z,19.30
2018-04-17T18:14:25.837Z,19.20
2018-04-17T18:16:53.527Z,19.10
2018-04-17T18:19:21.017Z,18.90
2018-04-17T18:21:48.504Z,18.90
2018-04-17T18:24:16.064Z,18.70
2018-04-17T18:26:44.317Z,18.40
2018-04-17T18:29:11.820Z,18.40
2018-04-17T18:31:39.369Z,18.30
2018-04-17T18:34:06.887Z,18.10
2018-04-17T18:36:34.411Z,17.90
2018-04-17T18:39:01.954Z,17.80
2018-04-17T18:41:29.439Z,17.80
2018-04-17T18:43:57.002Z,17.70
2018-04-17T18:46:24.536Z,17.50
2018-04-17T18:48:52.034Z,17.40
2018-04-17T18:51:19.526Z,17.30
2018-04-17T18:53:47.840Z,17.00
2018-04-17T18:56:15.382Z,17.00
2018-04-17T18:58:43.062Z,16.90
2018-04-17T19:01:10.572Z,16.80
2018-04-17T19:03:38.042Z,16.60
2018-04-17T19:06:06.318Z,16.60
2018-04-17T19:08:33.827Z,16.60
2018-04-17T19:11:01.312Z,16.60
2018-04-17T19:13:28.826Z,16.60
2018-04-17T19:15:56.438Z,16.50
2018-04-17T19:18:23.935Z,16.30
2018-04-17T19:20:51.444Z,16.10
2018-04-17T19:23:19.726Z,15.80
2018-04-17T19:25:47.274Z,15.80
2018-04-17T19:28:14.823Z,15.70
2018-04-17T19:30:42.923Z,15.50
2018-04-17T19:33:10.431Z,15.50
2018-04-17T19:35:37.932Z,15.40
2018-04-17T19:38:05.468Z,15.30
2018-04-17T19:40:32.956Z,15.20
2018-04-17T19:43:00.545Z,15.10
2018-04-17T19:45:28.140Z,15.00
2018-04-17T19:47:55.662Z,14.90
2018-04-17T19:50:23.148Z,14.80
2018-04-17T19:52:51.543Z,14.60
2018-04-17T19:55:19.030Z,14.60
2018-04-17T19:57:46.536Z,14.50
2018-04-17T20:00:14.806Z,14.40
2018-04-17T20:02:42.339Z,14.40
2018-04-17T20:05:09.837Z,14.30
2018-04-17T20:07:38.108Z,14.20
2018-04-17T20:10:06.338Z,14.10
2018-04-17T20:12:38.520Z,14.10
2018-04-17T20:15:07.721Z,14.10
2018-04-17T20:17:35.208Z,13.90
2018-04-17T20:20:03.489Z,13.70
2018-04-17T20:22:32.769Z,13.60
2018-04-17T20:25:00.357Z,13.60
2018-04-17T20:27:27.857Z,13.60
2018-04-17T20:29:55.341Z,13.60
2018-04-17T20:32:22.898Z,13.70
2018-04-17T20:34:50.456Z,13.70
2018-04-17T20:37:17.965Z,13.80
2018-04-17T20:39:45.481Z,13.70
2018-04-17T20:42:13.832Z,13.70
2018-04-17T20:44:42.159Z,13.60
2018-04-17T20:47:09.639Z,13.60
2018-04-17T20:49:37.139Z,13.50
2018-04-17T20:52:04.632Z,13.40
2018-04-17T20:54:32.116Z,13.40
2018-04-17T20:57:00.394Z,13.30
2018-04-17T20:59:28.659Z,13.30
2018-04-17T21:01:56.919Z,13.20
2018-04-17T21:04:24.418Z,13.10
2018-04-17T21:06:51.916Z,13.20
2018-04-17T21:09:19.390Z,13.10
2018-04-17T21:11:46.875Z,13.10
2018-04-17T21:14:15.132Z,13.00
2018-04-17T21:16:42.601Z,13.00
2018-04-17T21:19:10.090Z,12.80
2018-04-17T21:21:37.583Z,12.80
2018-04-17T21:24:05.052Z,12.60
2018-04-17T21:26:32.556Z,12.50
2018-04-17T21:29:00.169Z,12.50
2018-04-17T21:31:27.653Z,12.40
2018-04-17T21:33:55.110Z,12.40
2018-04-17T21:36:22.617Z,12.30
2018-04-17T21:38:50.110Z,12.40
2018-04-17T21:41:17.617Z,12.40
2018-04-17T21:43:45.108Z,12.40
2018-04-17T21:46:12.730Z,12.40
2018-04-17T21:48:40.238Z,12.30
2018-04-17T21:51:07.741Z,12.10
2018-04-17T21:53:35.990Z,11.90
2018-04-17T21:56:03.471Z,11.90
2018-04-17T21:58:31.774Z,11.80
2018-04-17T22:00:59.259Z,11.70
2018-04-17T22:03:26.760Z,11.80
2018-04-17T22:05:54.654Z,11.80
2018-04-17T22:08:22.910Z,11.90
2018-04-17T22:10:50.736Z,11.90
2018-04-17T22:13:18.210Z,12.00
2018-04-17T22:15:45.687Z,11.90
2018-04-17T22:18:13.971Z,11.80
2018-04-17T22:20:42.222Z,11.60
2018-04-17T22:23:09.722Z,11.50
2018-04-17T22:25:37.960Z,11.30
2018-04-17T22:28:05.469Z,11.30
2018-04-17T22:30:33.041Z,11.20
2018-04-17T22:33:00.561Z,11.10
2018-04-17T22:35:28.065Z,11.00
2018-04-17T22:37:55.553Z,11.00
2018-04-17T22:40:23.050Z,10.90
2018-04-17T22:42:51.286Z,10.90
2018-04-17T22:45:18.890Z,10.90
2018-04-17T22:47:47.179Z,11.30
2018-04-17T22:50:14.688Z,11.30
2018-04-17T22:52:42.200Z,11.40
2018-04-17T22:55:09.678Z,11.30
2018-04-17T22:57:37.155Z,11.20
2018-04-17T23:00:04.659Z,11.10
2018-04-17T23:02:32.897Z,10.80
2018-04-17T23:05:00.379Z,10.80
2018-04-17T23:07:27.887Z,10.70
2018-04-17T23:09:55.659Z,10.60
2018-04-17T23:12:23.160Z,10.50
2018-04-17T23:14:50.648Z,10.40
2018-04-17T23:17:18.140Z,10.40
2018-04-17T23:19:45.643Z,10.30
2018-04-17T23:22:14.938Z,10.30
2018-04-17T23:24:42.435Z,10.20
2018-04-17T23:27:09.917Z,10.10
2018-04-17T23:29:37.392Z,10.10
2018-04-17T23:32:04.875Z,10.10
2018-04-17T23:34:32.340Z,10.00
2018-04-17T23:37:00.163Z,10.00
2018-04-17T23:39:27.659Z,9.90
2018-04-17T23:41:55.167Z,9.90
2018-04-17T23:44:22.628Z,9.80
2018-04-17T23:46:50.146Z,9.80
2018-04-17T23:49:17.681Z,9.80
2018-04-17T23:51:45.140Z,9.70
2018-04-17T23:54:12.611Z,9.70
2018-04-17T23:56:40.874Z,9.70
2018-04-17T23:59:08.347Z,9.70
